FBSK/GBE METAR and TAF weather

Enter ICAO airport designator
Station Type Date Time Source
FBSK METAR 2019/12/10 03:00 UTC NOAA

FBSK 100300Z 05011KT 9999 -RA FEW009 SCT015 FEW030CB BKN065 1/19 Q1014 TEMPO TSRA


Station Type Date Time Source
FBSK Decoded METAR 2019/12/10 03:00 UTC NOAA

Seretse Khama International Airport, Botswana (FBSK) 24-13S 025-55E 1005M
Dec 09, 2019 - 10:00 PM EST / 2019.12.10 0300 UTC
Wind: from the NE (050 degrees) at 13 MPH (11 KT):0
Visibility: greater than 7 mile(s):0
Sky conditions: mostly cloudy
Weather: light rain; Cumulonimbus clouds observed
Pressure (altimeter): 29.94 in. Hg (1014 hPa)
ob: FBSK 100300Z 05011KT 9999 -RA FEW009 SCT015 FEW030CB BKN065 1/19 Q1014 TEMPO TSRA
cycle: 3

Station Type Date Time Source
FBSK TAF 2019/12/10 06:18 UTC NOAA

TAF FBSK 100300Z 1006/1112 05010KT 9999 BKN015 FEW035CB SCT065 PROB30
TEMPO 1006/1009 TSRA
BECMG 1011/1013 OVC015 PROB40
TEMPO 1014/1019 TSRA

Example: see airport list